Time;durP1;ratioP1;P1;durP2;ratioP2;P2;SDS_P1;SDS_P2;PMS_P1;PMS_P2;Temp;Humidity;BMP_temperature;BMP_pressure;BME280_temperature;BME280_humidity;BME280_pressure;Samples;Min_cycle;Max_cycle;Signal;HPM_P1;HPM_P2
2023/03/10 00:00:29;;;;;;;7.60;4.82;;;;;;;;;;1035903;28;20034;-78
2023/03/10 00:01:00;;;;;;;7.90;4.43;;;;;;;;;;1031466;28;20112;-78
2023/03/10 00:01:31;;;;;;;17.33;6.30;;;;;;;;;;1031556;28;20026;-78
2023/03/10 00:02:02;;;;;;;10.60;4.97;;;;;;;;;;1030532;28;20042;-78
2023/03/10 00:02:33;;;;;;;12.90;6.80;;;;;;;;;;1031222;28;20018;-78
2023/03/10 00:03:04;;;;;;;7.68;5.18;;;;;;;;;;1034872;28;20017;-78
2023/03/10 00:03:35;;;;;;;16.33;6.50;;;;;;;;;;1033269;28;20033;-78
2023/03/10 00:04:05;;;;;;;11.25;6.97;;;;;;;;;;1030877;28;20032;-78
2023/03/10 00:04:36;;;;;;;14.43;6.30;;;;;;;;;;1030485;28;20034;-78
2023/03/10 00:05:07;;;;;;;10.45;4.80;;;;;;;;;;1030263;28;20020;-79
2023/03/10 00:05:37;;;;;;;13.23;5.15;;;;;;;;;;1033558;28;20040;-79
2023/03/10 00:06:09;;;;;;;8.52;5.35;;;;;;;;;;1032910;28;20029;-79
2023/03/10 00:06:40;;;;;;;8.02;5.40;;;;;;;;;;1031480;28;20536;-79
2023/03/10 00:07:10;;;;;;;18.27;5.70;;;;;;;;;;1026281;28;20479;-79
2023/03/10 00:07:41;;;;;;;7.22;3.63;;;;;;;;;;1025597;28;20055;-79
2023/03/10 00:08:12;;;;;;;9.50;5.07;;;;;;;;;;1027771;28;20034;-79
2023/03/10 00:08:43;;;;;;;11.15;5.63;;;;;;;;;;1030323;28;20073;-79
2023/03/10 00:09:13;;;;;;;10.10;5.13;;;;;;;;;;1028748;28;20032;-79
2023/03/10 00:09:44;;;;;;;11.48;5.38;;;;;;;;;;1028585;28;20065;-79
2023/03/10 00:10:15;;;;;;;18.65;6.82;;;;;;;;;;1025289;28;20031;-79
2023/03/10 00:10:45;;;;;;;18.75;5.85;;;;;;;;;;1025464;28;20514;-79
2023/03/10 00:11:16;;;;;;;9.27;6.13;;;;;;;;;;1029578;28;20030;-79
2023/03/10 00:11:47;;;;;;;12.05;6.18;;;;;;;;;;1027325;28;20098;-79
2023/03/10 00:12:17;;;;;;;9.05;4.88;;;;;;;;;;1028027;28;20079;-79
2023/03/10 00:12:48;;;;;;;16.20;7.15;;;;;;;;;;1027465;28;20022;-79
2023/03/10 00:13:18;;;;;;;16.45;5.63;;;;;;;;;;1027630;28;20121;-79
2023/03/10 00:13:49;;;;;;;14.00;5.90;;;;;;;;;;1031306;28;20026;-79
2023/03/10 00:14:19;;;;;;;20.52;7.10;;;;;;;;;;1033330;28;20111;-79
2023/03/10 00:14:50;;;;;;;12.95;5.28;;;;;;;;;;1029218;28;20094;-77
2023/03/10 00:15:20;;;;;;;11.82;6.43;;;;;;;;;;1029264;28;20050;-77
2023/03/10 00:15:51;;;;;;;8.93;3.65;;;;;;;;;;1029444;28;20026;-77
2023/03/10 00:16:23;;;;;;;15.38;5.45;;;;;;;;;;1029529;28;20014;-77
2023/03/10 00:16:53;;;;;;;14.63;4.88;;;;;;;;;;1033269;28;20021;-77
2023/03/10 00:17:24;;;;;;;14.70;5.93;;;;;;;;;;1032628;28;20026;-78
2023/03/10 00:17:54;;;;;;;12.90;5.05;;;;;;;;;;1033325;28;20104;-78
2023/03/10 00:18:25;;;;;;;7.75;4.25;;;;;;;;;;1031481;28;20025;-78
2023/03/10 00:18:56;;;;;;;9.10;4.50;;;;;;;;;;1030509;28;20467;-78
2023/03/10 00:19:26;;;;;;;5.43;3.67;;;;;;;;;;1030644;28;20018;-78
2023/03/10 00:19:57;;;;;;;8.93;4.28;;;;;;;;;;1027299;28;20128;-79
2023/03/10 00:20:27;;;;;;;14.18;5.70;;;;;;;;;;1031527;28;20061;-79
2023/03/10 00:20:58;;;;;;;8.57;3.72;;;;;;;;;;1030570;28;20026;-79
2023/03/10 00:21:30;;;;;;;11.68;4.28;;;;;;;;;;1032068;28;20022;-79
2023/03/10 00:22:02;;;;;;;5.47;3.90;;;;;;;;;;1034384;28;20069;-79
2023/03/10 00:22:34;;;;;;;8.95;4.10;;;;;;;;;;1032589;28;20026;-79
2023/03/10 00:23:04;;;;;;;5.80;3.38;;;;;;;;;;1031422;28;20022;-79
2023/03/10 00:23:35;;;;;;;4.38;3.53;;;;;;;;;;1030214;28;20116;-79
2023/03/10 00:24:05;;;;;;;10.80;5.13;;;;;;;;;;1028700;28;20523;-79
2023/03/10 00:24:36;;;;;;;12.35;6.97;;;;;;;;;;1033428;28;20615;-79
2023/03/10 00:25:07;;;;;;;6.60;4.55;;;;;;;;;;1033598;28;20092;-79
2023/03/10 00:25:38;;;;;;;8.38;5.25;;;;;;;;;;1035380;28;20025;-79
2023/03/10 00:26:11;;;;;;;5.53;4.47;;;;;;;;;;1031255;28;20403;-79
2023/03/10 00:26:41;;;;;;;13.50;6.13;;;;;;;;;;1031444;28;20018;-79
2023/03/10 00:27:12;;;;;;;7.30;4.10;;;;;;;;;;1029536;28;20029;-79
2023/03/10 00:27:42;;;;;;;7.70;3.95;;;;;;;;;;1031654;28;20486;-79
2023/03/10 00:28:13;;;;;;;10.52;4.88;;;;;;;;;;1033826;28;20466;-79
2023/03/10 00:28:44;;;;;;;12.23;4.30;;;;;;;;;;1031732;28;20171;-79
2023/03/10 00:29:15;;;;;;;14.00;4.15;;;;;;;;;;1027419;28;20023;-79
2023/03/10 00:29:49;;;;;;;8.13;4.35;;;;;;;;;;1027403;28;20098;-79
2023/03/10 00:30:20;;;;;;;9.75;3.75;;;;;;;;;;1027254;28;20055;-78
2023/03/10 00:31:00;;;;;;;15.75;5.28;;;;;;;;;;1023926;28;20023;-77
2023/03/10 00:31:33;;;;;;;8.18;3.75;;;;;;;;;;1027372;28;20039;-77
2023/03/10 00:32:04;;;;;;;7.03;5.63;;;;;;;;;;1028115;28;20459;-77
2023/03/10 00:32:35;;;;;;;13.43;4.18;;;;;;;;;;1032438;28;20085;-79
2023/03/10 00:33:05;;;;;;;10.10;7.05;;;;;;;;;;1033480;28;20025;-79
2023/03/10 00:33:36;;;;;;;7.25;2.92;;;;;;;;;;1033329;28;20032;-79
2023/03/10 00:34:07;;;;;;;7.57;4.15;;;;;;;;;;1035601;28;20410;-79
2023/03/10 00:34:37;;;;;;;14.18;5.63;;;;;;;;;;1035576;28;20025;-79
2023/03/10 00:35:08;;;;;;;11.98;5.05;;;;;;;;;;1035655;28;20398;-79
2023/03/10 00:35:39;;;;;;;22.60;5.07;;;;;;;;;;1032306;28;20501;-79
2023/03/10 00:36:13;;;;;;;8.73;4.47;;;;;;;;;;1031782;28;20118;-79
2023/03/10 00:36:44;;;;;;;5.90;4.78;;;;;;;;;;1032718;28;20032;-79
2023/03/10 00:37:14;;;;;;;10.85;5.85;;;;;;;;;;1033177;28;20519;-79
2023/03/10 00:37:45;;;;;;;13.43;5.10;;;;;;;;;;1030321;28;20030;-79
2023/03/10 00:38:15;;;;;;;11.55;4.78;;;;;;;;;;1034624;28;20477;-79
2023/03/10 00:38:46;;;;;;;4.93;4.28;;;;;;;;;;1035766;28;20092;-79
2023/03/10 00:39:17;;;;;;;7.25;4.20;;;;;;;;;;1035900;28;20492;-79
2023/03/10 00:39:51;;;;;;;11.65;5.32;;;;;;;;;;1031113;28;20022;-79
2023/03/10 00:40:21;;;;;;;19.95;6.70;;;;;;;;;;1031123;28;20030;-79
2023/03/10 00:41:02;;;;;;;9.70;4.72;;;;;;;;;;1031200;28;20022;-79
2023/03/10 00:41:35;;;;;;;12.73;3.17;;;;;;;;;;1033348;28;20390;-79
2023/03/10 00:42:06;;;;;;;8.88;6.15;;;;;;;;;;1032549;28;20028;-79
2023/03/10 00:42:36;;;;;;;24.20;6.55;;;;;;;;;;1034079;28;20041;-79
2023/03/10 00:43:07;;;;;;;9.10;4.25;;;;;;;;;;1032766;28;20150;-79
2023/03/10 00:43:37;;;;;;;11.73;5.85;;;;;;;;;;1033300;28;20131;-79
2023/03/10 00:44:08;;;;;;;16.00;8.27;;;;;;;;;;1035630;28;20069;-79
2023/03/10 00:44:39;;;;;;;6.60;4.55;;;;;;;;;;1032854;28;20142;-79
2023/03/10 00:45:09;;;;;;;13.23;6.75;;;;;;;;;;1029804;28;20082;-79
2023/03/10 00:45:40;;;;;;;11.40;6.07;;;;;;;;;;1028437;28;20042;-79
2023/03/10 00:46:11;;;;;;;12.98;5.57;;;;;;;;;;1028105;28;20457;-79
2023/03/10 00:46:41;;;;;;;13.35;5.10;;;;;;;;;;1028489;28;20022;-79
2023/03/10 00:47:12;;;;;;;12.85;6.30;;;;;;;;;;1032393;28;20032;-77
2023/03/10 00:47:42;;;;;;;12.85;4.80;;;;;;;;;;1032555;28;20054;-77
2023/03/10 00:48:13;;;;;;;18.25;8.05;;;;;;;;;;1033116;28;20129;-77
2023/03/10 00:48:43;;;;;;;13.75;5.57;;;;;;;;;;1033069;28;20490;-77
2023/03/10 00:49:15;;;;;;;16.10;7.57;;;;;;;;;;1032770;28;20533;-77
2023/03/10 00:49:46;;;;;;;20.42;10.55;;;;;;;;;;1031691;28;20029;-77
2023/03/10 00:50:17;;;;;;;25.55;9.27;;;;;;;;;;1033059;28;20470;-78
2023/03/10 00:50:47;;;;;;;14.15;5.30;;;;;;;;;;1033298;28;20112;-78
2023/03/10 00:51:19;;;;;;;13.38;6.50;;;;;;;;;;1031928;28;20552;-78
2023/03/10 00:51:49;;;;;;;12.07;6.35;;;;;;;;;;1027179;28;20061;-78
2023/03/10 00:52:20;;;;;;;15.65;6.63;;;;;;;;;;1026645;28;20037;-78
2023/03/10 00:52:50;;;;;;;16.45;6.43;;;;;;;;;;1031201;28;20018;-78
2023/03/10 00:53:21;;;;;;;19.13;10.45;;;;;;;;;;1024980;29;20030;-78
2023/03/10 00:53:51;;;;;;;15.90;7.80;;;;;;;;;;1026884;28;20086;-79
2023/03/10 00:54:22;;;;;;;14.00;6.25;;;;;;;;;;1026989;28;20069;-79
2023/03/10 00:54:53;;;;;;;13.32;5.80;;;;;;;;;;1026693;28;20035;-79
2023/03/10 00:55:23;;;;;;;16.33;7.57;;;;;;;;;;1029590;28;20030;-79
2023/03/10 00:56:02;;;;;;;13.63;6.18;;;;;;;;;;1029568;28;20022;-79
2023/03/10 00:56:32;;;;;;;14.90;6.75;;;;;;;;;;1034779;28;20450;-79
2023/03/10 00:57:03;;;;;;;16.27;7.35;;;;;;;;;;1030944;28;20026;-79
2023/03/10 00:57:34;;;;;;;11.90;7.20;;;;;;;;;;1029956;28;20042;-79
2023/03/10 00:58:05;;;;;;;10.30;4.32;;;;;;;;;;1027113;28;20023;-79
2023/03/10 00:58:35;;;;;;;11.75;6.32;;;;;;;;;;1027302;28;20480;-79
2023/03/10 00:59:06;;;;;;;10.60;5.15;;;;;;;;;;1029692;28;20455;-79
2023/03/10 00:59:36;;;;;;;6.90;4.10;;;;;;;;;;1028840;28;20097;-79
2023/03/10 01:00:07;;;;;;;16.00;6.18;;;;;;;;;;1032622;28;20022;-79
2023/03/10 01:00:38;;;;;;;26.30;8.15;;;;;;;;;;1030046;28;21620;-79
2023/03/10 01:01:13;;;;;;;7.38;4.25;;;;;;;;;;1031101;28;20034;-79
2023/03/10 01:01:44;;;;;;;12.38;4.45;;;;;;;;;;1029685;28;20482;-79
2023/03/10 01:02:14;;;;;;;7.05;4.03;;;;;;;;;;1030379;28;20105;-79
2023/03/10 01:02:45;;;;;;;13.18;5.28;;;;;;;;;;1026840;28;20063;-79
2023/03/10 01:03:15;;;;;;;9.20;4.45;;;;;;;;;;1028786;28;20115;-79
2023/03/10 01:03:46;;;;;;;14.57;4.63;;;;;;;;;;1035664;28;20439;-79
2023/03/10 01:04:19;;;;;;;11.65;4.18;;;;;;;;;;1032994;28;20049;-79
2023/03/10 01:04:50;;;;;;;10.07;5.65;;;;;;;;;;1033562;28;20061;-79
2023/03/10 01:05:21;;;;;;;17.10;4.97;;;;;;;;;;1034398;28;20046;-79
2023/03/10 01:05:52;;;;;;;12.77;6.88;;;;;;;;;;1031717;28;20030;-79
2023/03/10 01:06:23;;;;;;;10.65;6.70;;;;;;;;;;1032544;28;20023;-79
2023/03/10 01:06:53;;;;;;;5.53;4.10;;;;;;;;;;1034070;28;20053;-79
2023/03/10 01:07:24;;;;;;;10.38;5.13;;;;;;;;;;1032424;28;20022;-79
2023/03/10 01:07:54;;;;;;;6.22;4.00;;;;;;;;;;1034632;28;20022;-79
2023/03/10 01:08:25;;;;;;;18.73;4.15;;;;;;;;;;1034263;28;20021;-79
2023/03/10 01:08:56;;;;;;;9.45;3.85;;;;;;;;;;1036113;28;20045;-79
2023/03/10 01:09:26;;;;;;;9.57;4.18;;;;;;;;;;1035631;28;20030;-79
2023/03/10 01:09:57;;;;;;;10.05;4.75;;;;;;;;;;1035587;28;20025;-79
2023/03/10 01:10:27;;;;;;;10.02;6.25;;;;;;;;;;1031135;28;20119;-79
2023/03/10 01:10:58;;;;;;;5.95;3.75;;;;;;;;;;1027500;28;20065;-79
2023/03/10 01:11:30;;;;;;;6.32;3.22;;;;;;;;;;1031114;28;20056;-79
2023/03/10 01:12:00;;;;;;;20.63;5.47;;;;;;;;;;1026479;28;20023;-79
2023/03/10 01:12:31;;;;;;;8.68;4.68;;;;;;;;;;1030795;28;20052;-79
2023/03/10 01:13:01;;;;;;;6.82;3.95;;;;;;;;;;1031048;28;20045;-79
2023/03/10 01:13:32;;;;;;;17.42;4.78;;;;;;;;;;1029392;28;20037;-79
2023/03/10 01:14:04;;;;;;;8.52;3.83;;;;;;;;;;1033701;28;20468;-79
2023/03/10 01:14:34;;;;;;;5.88;3.15;;;;;;;;;;1034754;28;20037;-79
2023/03/10 01:15:05;;;;;;;7.07;4.43;;;;;;;;;;1035051;28;20121;-79
2023/03/10 01:15:36;;;;;;;8.02;4.28;;;;;;;;;;1033087;28;20022;-79
2023/03/10 01:16:07;;;;;;;6.93;4.28;;;;;;;;;;1033574;28;20108;-79
2023/03/10 01:16:38;;;;;;;8.70;5.15;;;;;;;;;;1029629;28;20022;-79
2023/03/10 01:17:09;;;;;;;6.20;2.60;;;;;;;;;;1030219;28;20023;-79
2023/03/10 01:17:40;;;;;;;3.25;2.83;;;;;;;;;;1029011;28;20047;-79
2023/03/10 01:18:11;;;;;;;9.55;5.90;;;;;;;;;;1028685;28;20022;-79
2023/03/10 01:18:42;;;;;;;6.93;4.13;;;;;;;;;;1033106;28;20025;-79
2023/03/10 01:19:12;;;;;;;13.85;3.80;;;;;;;;;;1030792;28;20038;-79
2023/03/10 01:19:43;;;;;;;10.60;3.13;;;;;;;;;;1026691;28;20042;-79
2023/03/10 01:20:15;;;;;;;7.80;3.85;;;;;;;;;;1025687;28;20066;-79
2023/03/10 01:20:46;;;;;;;4.63;3.00;;;;;;;;;;1026148;28;20037;-79
2023/03/10 01:21:27;;;;;;;8.93;3.65;;;;;;;;;;1029303;28;20030;-79
2023/03/10 01:21:58;;;;;;;10.85;4.13;;;;;;;;;;1031497;28;20089;-79
2023/03/10 01:22:28;;;;;;;9.93;4.82;;;;;;;;;;1032575;28;20018;-79
2023/03/10 01:22:59;;;;;;;9.52;3.50;;;;;;;;;;1029923;28;20438;-79
2023/03/10 01:23:30;;;;;;;12.35;6.43;;;;;;;;;;1022976;28;20163;-79
2023/03/10 01:24:01;;;;;;;16.35;5.60;;;;;;;;;;1023293;28;20174;-79
2023/03/10 01:24:31;;;;;;;6.03;3.75;;;;;;;;;;1016662;29;20507;-79
2023/03/10 01:25:02;;;;;;;4.35;2.72;;;;;;;;;;1026330;28;20026;-79
2023/03/10 01:25:32;;;;;;;7.30;2.83;;;;;;;;;;1025376;28;20046;-79
2023/03/10 01:26:04;;;;;;;8.20;4.22;;;;;;;;;;1026467;28;20716;-79
2023/03/10 01:26:35;;;;;;;10.10;3.92;;;;;;;;;;1030870;28;20022;-79
2023/03/10 01:27:06;;;;;;;5.97;3.38;;;;;;;;;;1030115;28;20030;-79
2023/03/10 01:27:37;;;;;;;6.95;3.05;;;;;;;;;;1030615;28;20034;-79
2023/03/10 01:28:07;;;;;;;8.88;4.47;;;;;;;;;;1027848;28;20130;-79
2023/03/10 01:28:38;;;;;;;5.38;3.33;;;;;;;;;;1027114;28;20031;-79
2023/03/10 01:29:09;;;;;;;4.45;2.53;;;;;;;;;;1028744;28;20035;-79
2023/03/10 01:29:40;;;;;;;8.60;5.32;;;;;;;;;;1024768;28;20582;-79
2023/03/10 01:30:11;;;;;;;6.43;4.03;;;;;;;;;;1022527;28;20015;-79
2023/03/10 01:30:41;;;;;;;5.65;4.07;;;;;;;;;;1028105;28;20535;-79
2023/03/10 01:31:12;;;;;;;8.07;2.83;;;;;;;;;;1032531;28;20022;-79
2023/03/10 01:31:43;;;;;;;7.72;3.95;;;;;;;;;;1031964;28;20018;-79
2023/03/10 01:32:13;;;;;;;11.95;3.72;;;;;;;;;;1029888;28;20073;-79
2023/03/10 01:32:44;;;;;;;6.38;4.65;;;;;;;;;;1031407;28;20036;-79
2023/03/10 01:33:15;;;;;;;14.10;3.45;;;;;;;;;;1032343;28;20122;-79
2023/03/10 01:33:46;;;;;;;7.45;4.47;;;;;;;;;;1025317;28;20031;-79
2023/03/10 01:34:16;;;;;;;10.13;4.88;;;;;;;;;;1025681;28;20073;-79
2023/03/10 01:34:47;;;;;;;10.50;3.50;;;;;;;;;;1023201;28;20586;-79
2023/03/10 01:35:19;;;;;;;8.50;4.22;;;;;;;;;;1027347;28;20108;-79
2023/03/10 01:35:50;;;;;;;13.10;4.30;;;;;;;;;;1027395;28;20035;-79
2023/03/10 01:36:21;;;;;;;9.23;3.65;;;;;;;;;;1033511;28;20452;-79
2023/03/10 01:36:53;;;;;;;6.13;3.95;;;;;;;;;;1033941;28;20030;-79
2023/03/10 01:37:23;;;;;;;8.30;4.75;;;;;;;;;;1032898;28;20024;-79
2023/03/10 01:37:54;;;;;;;11.27;5.90;;;;;;;;;;1028419;28;20050;-79
2023/03/10 01:38:24;;;;;;;10.48;4.53;;;;;;;;;;1028236;28;20070;-79
2023/03/10 01:38:55;;;;;;;15.45;5.45;;;;;;;;;;1025686;28;20486;-79
2023/03/10 01:39:26;;;;;;;9.85;5.78;;;;;;;;;;1022992;28;20035;-79
2023/03/10 01:39:56;;;;;;;7.75;3.97;;;;;;;;;;1028137;28;20022;-79
2023/03/10 01:40:27;;;;;;;10.70;4.53;;;;;;;;;;1029795;28;20090;-79
2023/03/10 01:40:58;;;;;;;3.85;2.38;;;;;;;;;;1034028;28;20022;-79
2023/03/10 01:41:28;;;;;;;10.35;4.85;;;;;;;;;;1032446;28;20155;-79
2023/03/10 01:42:02;;;;;;;5.40;3.55;;;;;;;;;;1032846;28;20038;-79
2023/03/10 01:42:32;;;;;;;5.28;3.90;;;;;;;;;;1033611;28;20399;-79
2023/03/10 01:43:21;;;;;;;8.85;3.90;;;;;;;;;;1034591;28;20050;-79
2023/03/10 01:43:56;;;;;;;6.40;4.00;;;;;;;;;;1031677;28;20037;-79
2023/03/10 01:44:26;;;;;;;6.45;3.88;;;;;;;;;;1030706;28;20609;-79
2023/03/10 01:45:09;;;;;;;13.13;5.65;;;;;;;;;;1030266;28;20026;-79
2023/03/10 01:45:39;;;;;;;15.15;4.15;;;;;;;;;;1029377;28;20026;-79
2023/03/10 01:46:29;;;;;;;12.43;7.18;;;;;;;;;;1029406;28;20060;-79
2023/03/10 01:47:00;;;;;;;13.80;4.93;;;;;;;;;;1028156;28;20137;-80
2023/03/10 01:47:30;;;;;;;10.63;5.50;;;;;;;;;;1025663;28;20031;-79
2023/03/10 01:48:01;;;;;;;13.00;5.35;;;;;;;;;;1027316;28;20015;-79
2023/03/10 01:48:35;;;;;;;39.22;20.58;;;;;;;;;;1027297;28;20548;-79
2023/03/10 01:49:11;;;;;;;33.40;12.63;;;;;;;;;;1029716;28;20019;-79
2023/03/10 01:49:44;;;;;;;44.95;15.23;;;;;;;;;;1027783;28;20026;-79
2023/03/10 01:50:16;;;;;;;15.50;8.45;;;;;;;;;;1026711;28;20023;-79
2023/03/10 01:50:48;;;;;;;26.02;8.90;;;;;;;;;;1028224;28;20030;-79
2023/03/10 01:51:19;;;;;;;33.45;10.70;;;;;;;;;;1031369;28;20026;-79
2023/03/10 01:51:52;;;;;;;30.92;10.07;;;;;;;;;;1035820;28;20422;-79
2023/03/10 01:52:24;;;;;;;24.30;9.82;;;;;;;;;;1035299;28;20104;-79
2023/03/10 01:52:57;;;;;;;36.65;7.10;;;;;;;;;;1035032;28;20022;-79
2023/03/10 01:53:28;;;;;;;17.65;8.98;;;;;;;;;;1032939;28;20026;-79
2023/03/10 01:54:00;;;;;;;18.98;7.75;;;;;;;;;;1032260;28;20027;-79
2023/03/10 01:54:39;;;;;;;15.73;7.10;;;;;;;;;;1030694;28;20033;-79
2023/03/10 01:55:18;;;;;;;10.00;4.13;;;;;;;;;;1022790;28;20031;-79
2023/03/10 01:55:51;;;;;;;6.88;3.58;;;;;;;;;;1025519;28;20583;-79
2023/03/10 01:56:22;;;;;;;10.52;3.83;;;;;;;;;;1028861;28;20418;-79
2023/03/10 01:56:54;;;;;;;5.72;3.38;;;;;;;;;;1026261;28;20015;-79
2023/03/10 01:57:30;;;;;;;9.07;3.42;;;;;;;;;;1029915;28;20134;-79
2023/03/10 01:58:01;;;;;;;12.20;3.63;;;;;;;;;;1031122;28;20942;-79
2023/03/10 01:58:36;;;;;;;12.30;4.20;;;;;;;;;;1030693;28;20022;-79
2023/03/10 01:59:08;;;;;;;10.52;4.35;;;;;;;;;;1026448;28;20027;-79
2023/03/10 01:59:39;;;;;;;8.50;3.75;;;;;;;;;;1025376;28;20030;-79
2023/03/10 02:00:15;;;;;;;8.77;3.10;;;;;;;;;;1024757;28;20033;-79
2023/03/10 02:00:45;;;;;;;15.50;6.05;;;;;;;;;;1026370;28;20027;-79
2023/03/10 02:01:16;;;;;;;11.75;4.18;;;;;;;;;;1025456;28;20031;-79
2023/03/10 02:01:49;;;;;;;9.13;4.18;;;;;;;;;;1024665;28;20027;-80
2023/03/10 02:02:20;;;;;;;3.85;2.90;;;;;;;;;;1023328;28;20035;-80
2023/03/10 02:03:02;;;;;;;6.07;2.45;;;;;;;;;;1026436;28;20031;-79
2023/03/10 02:03:35;;;;;;;6.50;4.18;;;;;;;;;;1031474;28;20023;-79
2023/03/10 02:04:28;;;;;;;7.05;4.78;;;;;;;;;;1028738;28;20030;-79
2023/03/10 02:04:59;;;;;;;10.43;4.15;;;;;;;;;;1032931;28;20030;-79
2023/03/10 02:05:30;;;;;;;11.52;4.63;;;;;;;;;;1033999;28;20022;-79
2023/03/10 02:06:05;;;;;;;10.65;4.32;;;;;;;;;;1032743;28;20037;-79
2023/03/10 02:06:36;;;;;;;5.15;3.80;;;;;;;;;;1031626;28;20474;-80
2023/03/10 02:07:07;;;;;;;7.60;4.25;;;;;;;;;;1033709;28;20044;-79
2023/03/10 02:07:38;;;;;;;11.70;4.45;;;;;;;;;;1028772;28;20031;-79
2023/03/10 02:08:10;;;;;;;5.35;2.83;;;;;;;;;;1024957;28;20034;-79
2023/03/10 02:08:42;;;;;;;4.70;1.75;;;;;;;;;;1025884;28;20324;-79
2023/03/10 02:09:14;;;;;;;5.85;2.72;;;;;;;;;;1025328;28;20440;-79
2023/03/10 02:09:47;;;;;;;15.93;2.35;;;;;;;;;;1024738;28;20445;-79
2023/03/10 02:10:17;;;;;;;19.23;8.05;;;;;;;;;;1023919;28;20033;-79
2023/03/10 02:10:49;;;;;;;13.00;3.47;;;;;;;;;;1026474;28;20042;-79
2023/03/10 02:11:20;;;;;;;7.65;2.92;;;;;;;;;;1022367;28;20518;-79
2023/03/10 02:11:51;;;;;;;14.75;5.70;;;;;;;;;;1024508;28;20057;-79
2023/03/10 02:12:22;;;;;;;4.63;2.70;;;;;;;;;;1022068;28;20035;-79
2023/03/10 02:12:53;;;;;;;9.43;3.58;;;;;;;;;;1021007;28;20028;-79
2023/03/10 02:13:23;;;;;;;9.85;6.30;;;;;;;;;;1025878;28;20042;-80
2023/03/10 02:13:55;;;;;;;5.38;2.95;;;;;;;;;;1026672;28;20592;-79
2023/03/10 02:14:26;;;;;;;7.13;2.65;;;;;;;;;;1026457;28;20034;-79
2023/03/10 02:14:57;;;;;;;4.72;2.35;;;;;;;;;;1030335;28;20053;-79
2023/03/10 02:15:28;;;;;;;5.43;2.08;;;;;;;;;;1026382;28;20320;-79
2023/03/10 02:15:59;;;;;;;5.18;3.33;;;;;;;;;;1024570;28;20027;-79
2023/03/10 02:16:30;;;;;;;6.57;4.03;;;;;;;;;;1023324;28;20058;-79
2023/03/10 02:17:03;;;;;;;9.05;3.10;;;;;;;;;;1023902;28;20118;-79
2023/03/10 02:17:33;;;;;;;5.32;2.92;;;;;;;;;;1024451;28;20027;-79
2023/03/10 02:18:06;;;;;;;4.82;3.90;;;;;;;;;;1028214;28;20685;-79
2023/03/10 02:18:38;;;;;;;8.57;3.30;;;;;;;;;;1029186;28;20049;-79
2023/03/10 02:19:30;;;;;;;7.47;3.30;;;;;;;;;;1029838;28;20027;-79
2023/03/10 02:20:03;;;;;;;5.22;3.83;;;;;;;;;;1032658;28;20034;-80
2023/03/10 02:20:39;;;;;;;3.22;2.38;;;;;;;;;;1029191;28;20889;-80
2023/03/10 02:21:26;;;;;;;8.90;4.18;;;;;;;;;;1032546;28;20038;-80
2023/03/10 02:22:03;;;;;;;19.67;4.03;;;;;;;;;;1029740;28;20029;-79
2023/03/10 02:22:33;;;;;;;8.00;3.85;;;;;;;;;;1029480;28;20530;-80
2023/03/10 02:23:04;;;;;;;8.45;4.40;;;;;;;;;;1023416;28;20062;-80
2023/03/10 02:23:40;;;;;;;4.07;2.55;;;;;;;;;;1024901;28;20136;-80
2023/03/10 02:24:18;;;;;;;20.20;4.70;;;;;;;;;;1022926;28;20031;-80
2023/03/10 02:24:51;;;;;;;5.10;3.15;;;;;;;;;;1025535;28;20031;-80
2023/03/10 02:25:21;;;;;;;8.40;3.33;;;;;;;;;;1031850;28;20026;-79
2023/03/10 02:25:55;;;;;;;7.18;4.00;;;;;;;;;;1031690;28;20042;-79
2023/03/10 02:26:34;;;;;;;7.07;3.80;;;;;;;;;;1031095;28;20030;-79
2023/03/10 02:27:11;;;;;;;8.82;3.10;;;;;;;;;;1029665;28;20543;-80
2023/03/10 02:27:43;;;;;;;4.22;2.92;;;;;;;;;;1027032;28;20074;-80
2023/03/10 02:28:14;;;;;;;7.90;3.25;;;;;;;;;;1025650;28;20069;-80
2023/03/10 02:28:45;;;;;;;13.60;3.47;;;;;;;;;;1025117;28;20158;-80
2023/03/10 02:29:20;;;;;;;12.40;5.65;;;;;;;;;;1029268;28;20022;-80
2023/03/10 02:29:51;;;;;;;8.75;4.40;;;;;;;;;;1032436;28;20474;-80
2023/03/10 02:30:21;;;;;;;13.15;6.47;;;;;;;;;;1032070;28;20036;-80
2023/03/10 02:30:53;;;;;;;12.77;4.90;;;;;;;;;;1033012;28;20022;-80
2023/03/10 02:31:25;;;;;;;16.10;5.57;;;;;;;;;;1033895;28;20033;-80
2023/03/10 02:31:56;;;;;;;14.75;5.18;;;;;;;;;;1033930;28;20403;-80
2023/03/10 02:32:29;;;;;;;11.07;5.47;;;;;;;;;;1025517;28;20373;-80
2023/03/10 02:33:02;;;;;;;12.77;5.55;;;;;;;;;;1025232;28;20039;-79
2023/03/10 02:33:35;;;;;;;17.63;5.78;;;;;;;;;;1024462;28;20019;-79
2023/03/10 02:34:06;;;;;;;8.30;3.67;;;;;;;;;;1023147;28;20032;-79
2023/03/10 02:34:37;;;;;;;4.68;3.17;;;;;;;;;;1026969;28;20030;-79
2023/03/10 02:35:08;;;;;;;8.13;3.85;;;;;;;;;;1028624;28;20101;-80
2023/03/10 02:35:39;;;;;;;13.43;5.18;;;;;;;;;;1029939;28;20490;-80
2023/03/10 02:36:17;;;;;;;10.38;6.10;;;;;;;;;;1033812;28;20177;-80
2023/03/10 02:36:47;;;;;;;10.68;7.20;;;;;;;;;;1034727;28;20030;-80
2023/03/10 02:37:19;;;;;;;12.82;5.40;;;;;;;;;;1029094;28;20395;-80
2023/03/10 02:37:50;;;;;;;9.52;5.65;;;;;;;;;;1029703;28;20135;-80
2023/03/10 02:38:20;;;;;;;24.67;3.90;;;;;;;;;;1030393;28;20034;-80
2023/03/10 02:38:51;;;;;;;26.23;4.18;;;;;;;;;;1030130;28;20486;-81
2023/03/10 02:39:22;;;;;;;10.93;3.72;;;;;;;;;;1024071;28;20029;-81
2023/03/10 02:39:53;;;;;;;8.57;5.07;;;;;;;;;;1031367;28;20037;-81
2023/03/10 02:40:32;;;;;;;10.45;4.80;;;;;;;;;;1030951;28;20125;-81
2023/03/10 02:41:11;;;;;;;5.10;3.67;;;;;;;;;;1030487;28;20022;-81
2023/03/10 02:41:42;;;;;;;24.88;8.43;;;;;;;;;;1026614;28;20027;-81
2023/03/10 02:42:13;;;;;;;16.77;3.90;;;;;;;;;;1022714;28;20026;-81
2023/03/10 02:42:44;;;;;;;9.57;5.32;;;;;;;;;;1023621;28;20031;-81
2023/03/10 02:43:14;;;;;;;10.13;6.47;;;;;;;;;;1020899;28;20032;-81
2023/03/10 02:43:46;;;;;;;18.05;5.13;;;;;;;;;;1023076;28;20113;-80
2023/03/10 02:44:19;;;;;;;14.02;5.43;;;;;;;;;;1028213;28;20148;-80
2023/03/10 02:44:50;;;;;;;9.93;5.47;;;;;;;;;;1028569;28;20060;-81
2023/03/10 02:45:21;;;;;;;7.60;4.00;;;;;;;;;;1027361;28;20031;-80
2023/03/10 02:45:54;;;;;;;12.27;4.78;;;;;;;;;;1026847;28;20026;-80
2023/03/10 02:46:25;;;;;;;6.78;4.78;;;;;;;;;;1023064;28;20066;-81
2023/03/10 02:48:15;;;;;;;7.05;4.22;;;;;;;;;;1025115;28;20611;-80
2023/03/10 02:48:46;;;;;;;5.47;4.03;;;;;;;;;;1027206;28;20023;-80
2023/03/10 02:49:18;;;;;;;16.17;7.30;;;;;;;;;;1026664;28;20946;-80
2023/03/10 02:49:49;;;;;;;7.53;5.10;;;;;;;;;;1027174;28;20062;-80
2023/03/10 02:50:22;;;;;;;15.75;5.50;;;;;;;;;;1026778;28;20077;-80
2023/03/10 02:50:55;;;;;;;6.55;3.78;;;;;;;;;;1026912;28;20546;-81
2023/03/10 02:51:28;;;;;;;9.52;4.20;;;;;;;;;;1027754;28;20033;-81
2023/03/10 02:52:01;;;;;;;36.17;5.93;;;;;;;;;;1030347;28;20026;-81
2023/03/10 02:52:36;;;;;;;11.52;4.72;;;;;;;;;;1034352;28;20026;-81
2023/03/10 02:53:09;;;;;;;17.83;5.45;;;;;;;;;;1034660;28;20022;-81
2023/03/10 02:53:40;;;;;;;19.63;5.43;;;;;;;;;;1029365;28;20027;-80
2023/03/10 02:54:11;;;;;;;8.50;5.13;;;;;;;;;;1027503;28;20062;-80
2023/03/10 02:54:42;;;;;;;10.25;4.90;;;;;;;;;;1024848;28;20711;-80
2023/03/10 02:55:16;;;;;;;23.05;7.35;;;;;;;;;;1024314;28;20035;-81
2023/03/10 02:55:48;;;;;;;16.83;7.10;;;;;;;;;;1029264;28;21078;-81
2023/03/10 02:56:21;;;;;;;13.40;5.13;;;;;;;;;;1028239;28;20450;-80
2023/03/10 02:56:52;;;;;;;23.00;6.10;;;;;;;;;;1028852;28;20030;-80
2023/03/10 02:57:22;;;;;;;16.77;5.43;;;;;;;;;;1027769;28;20526;-80
2023/03/10 02:57:53;;;;;;;15.35;6.35;;;;;;;;;;1026413;28;20034;-80
2023/03/10 02:58:25;;;;;;;20.45;6.05;;;;;;;;;;1028291;28;20341;-80
2023/03/10 02:58:56;;;;;;;10.73;7.07;;;;;;;;;;1031105;28;20018;-80
2023/03/10 02:59:27;;;;;;;15.48;7.55;;;;;;;;;;1027740;28;20022;-80
2023/03/10 03:00:11;;;;;;;14.68;6.57;;;;;;;;;;1035523;28;20030;-80
2023/03/10 03:00:46;;;;;;;8.05;3.95;;;;;;;;;;1034968;28;20014;-80
2023/03/10 03:01:38;;;;;;;12.32;5.10;;;;;;;;;;1032904;28;20041;-80
2023/03/10 03:02:11;;;;;;;6.85;3.15;;;;;;;;;;1022315;28;20129;-80
2023/03/10 03:02:42;;;;;;;12.90;4.82;;;;;;;;;;1025590;28;20066;-81
2023/03/10 03:03:14;;;;;;;21.23;5.40;;;;;;;;;;1028019;28;20026;-80
2023/03/10 03:03:45;;;;;;;22.05;6.45;;;;;;;;;;1026430;28;20033;-81
2023/03/10 03:04:15;;;;;;;10.38;4.68;;;;;;;;;;1030777;28;20041;-81
2023/03/10 03:04:46;;;;;;;20.25;6.65;;;;;;;;;;1029574;28;20049;-80
2023/03/10 03:05:17;;;;;;;26.77;7.82;;;;;;;;;;1025787;28;20042;-80
2023/03/10 03:05:48;;;;;;;11.02;5.57;;;;;;;;;;1025510;28;20062;-80
2023/03/10 03:06:19;;;;;;;9.88;6.30;;;;;;;;;;1025850;28;20037;-80
2023/03/10 03:06:49;;;;;;;17.02;6.82;;;;;;;;;;1021176;28;20057;-80
2023/03/10 03:07:20;;;;;;;16.88;7.45;;;;;;;;;;1026776;28;20027;-80
2023/03/10 03:07:50;;;;;;;19.73;6.22;;;;;;;;;;1028844;28;20125;-80
2023/03/10 03:08:21;;;;;;;9.38;4.50;;;;;;;;;;1022752;28;20033;-80
2023/03/10 03:08:52;;;;;;;5.22;2.88;;;;;;;;;;1026207;28;20494;-80
2023/03/10 03:09:23;;;;;;;6.32;4.47;;;;;;;;;;1021295;28;20039;-80
2023/03/10 03:09:53;;;;;;;18.08;3.95;;;;;;;;;;1024179;28;20241;-80
2023/03/10 03:10:24;;;;;;;18.45;5.88;;;;;;;;;;1026361;28;20750;-79
2023/03/10 03:10:55;;;;;;;10.13;4.85;;;;;;;;;;1027432;28;20033;-81
2023/03/10 03:11:26;;;;;;;27.98;4.65;;;;;;;;;;1030766;28;20034;-81